Time;durP1;ratioP1;P1;durP2;ratioP2;P2;SDS_P1;SDS_P2;PMS_P1;PMS_P2;Temp;Humidity;BMP_temperature;BMP_pressure;BME280_temperature;BME280_humidity;BME280_pressure;Samples;Min_cycle;Max_cycle;Signal;HPM_P1;HPM_P2
2021/04/21 00:00:14;;;;;;;13.43;10.25;;;;;;;15.97;43.79;99864.25;1810472;79;21057;-77
2021/04/21 00:02:43;;;;;;;13.10;9.95;;;;;;;15.96;43.85;99862.59;1810420;79;21085;-77
2021/04/21 00:05:12;;;;;;;12.03;10.23;;;;;;;15.95;43.87;99866.34;1810563;79;21559;-77
2021/04/21 00:07:39;;;;;;;11.83;9.38;;;;;;;15.95;43.86;99864.99;1810455;79;21063;-76
2021/04/21 00:10:09;;;;;;;12.13;9.78;;;;;;;15.94;43.92;99871.93;1810697;79;21611;-76
2021/04/21 00:12:36;;;;;;;12.00;10.15;;;;;;;15.92;43.94;99872.14;1810492;79;21149;-77
2021/04/21 00:15:09;;;;;;;15.63;10.28;;;;;;;15.91;43.94;99873.72;1783442;79;21136;-75
2021/04/21 00:17:39;;;;;;;13.93;10.63;;;;;;;15.87;43.99;99880.05;1809835;79;21140;-75
2021/04/21 00:20:08;;;;;;;13.08;10.38;;;;;;;15.84;43.98;99878.27;1810429;79;21097;-76
2021/04/21 00:22:35;;;;;;;13.28;10.08;;;;;;;15.82;43.98;99883.06;1800336;79;21598;-76
2021/04/21 00:25:03;;;;;;;;;;;;;;;15.81;44.01;99874.65;1781203;79;21114;-75
2021/04/21 00:27:30;;;;;;;12.15;9.40;;;;;;;15.79;44.06;99874.01;1778626;80;20512;-75
2021/04/21 00:30:05;;;;;;;11.03;8.80;;;;;;;15.76;44.08;99873.06;1778523;80;21127;-75
2021/04/21 00:32:42;;;;;;;13.70;10.60;;;;;;;15.76;44.04;99875.77;1791870;78;21173;-75
2021/04/21 00:35:12;;;;;;;;;;;;;;;15.72;44.08;99876.20;1817620;78;21105;-75
2021/04/21 00:37:39;;;;;;;14.40;10.30;;;;;;;15.70;44.13;99880.13;1810447;79;20149;-77
2021/04/21 00:40:09;;;;;;;15.28;11.30;;;;;;;15.65;44.21;99879.39;1823021;78;21153;-76
2021/04/21 00:42:51;;;;;;;13.15;10.32;;;;;;;15.65;44.22;99890.19;1826066;78;21534;-75
2021/04/21 00:45:19;;;;;;;13.43;9.88;;;;;;;15.69;44.13;99894.14;1825981;78;21058;-75
2021/04/21 00:48:07;;;;;;;14.10;9.90;;;;;;;15.65;44.14;99890.19;1815946;78;21146;-75
2021/04/21 00:50:50;;;;;;;16.60;10.95;;;;;;;15.62;44.17;99901.87;1815282;78;21110;-75
2021/04/21 00:53:29;;;;;;;16.73;11.43;;;;;;;15.62;44.17;99901.36;1815373;79;21543;-75
2021/04/21 00:56:25;;;;;;;18.17;11.40;;;;;;;15.58;44.25;99898.78;1815286;78;21118;-75
2021/04/21 00:59:00;;;;;;;16.57;11.38;;;;;;;15.59;44.22;99905.84;1832632;78;21050;-76
2021/04/21 01:01:30;;;;;;;16.27;12.05;;;;;;;15.59;44.04;99900.44;1792293;78;21064;-76
2021/04/21 01:03:57;;;;;;;16.05;12.47;;;;;;;15.61;44.00;99897.00;1760067;79;21133;-76
2021/04/21 01:06:35;;;;;;;17.55;12.50;;;;;;;15.60;43.92;99893.99;1777862;80;21572;-77
2021/04/21 01:09:06;;;;;;;13.35;11.43;;;;;;;15.52;44.00;99896.05;1777892;80;21130;-75
2021/04/21 01:11:43;;;;;;;16.80;13.20;;;;;;;15.46;44.07;99901.75;1777956;80;21145;-75
2021/04/21 01:14:18;;;;;;;17.17;12.90;;;;;;;15.45;44.11;99898.74;1778187;80;21130;-76
2021/04/21 01:16:54;;;;;;;24.77;13.13;;;;;;;15.42;44.09;99897.27;1777884;80;21173;-76
2021/04/21 01:20:03;;;;;;;16.60;12.25;;;;;;;15.39;44.09;99902.23;1778040;80;21102;-76
2021/04/21 01:22:51;;;;;;;17.62;13.22;;;;;;;15.38;44.11;99905.45;1777901;80;21062;-76
2021/04/21 01:25:50;;;;;;;18.27;13.38;;;;;;;15.32;44.19;99906.80;1778079;80;21058;-75
2021/04/21 01:28:24;;;;;;;21.60;13.70;;;;;;;15.25;44.32;99909.97;1778137;80;21137;-77
2021/04/21 01:30:51;;;;;;;15.95;12.13;;;;;;;15.19;44.33;99907.05;1751725;80;21070;-76
2021/04/21 01:33:20;;;;;;;16.57;12.70;;;;;;;15.19;44.32;99912.45;1737583;80;21112;-76
2021/04/21 01:36:01;;;;;;;19.95;12.68;;;;;;;15.16;44.39;99903.40;1777927;80;21129;-76
2021/04/21 01:38:31;;;;;;;16.52;11.20;;;;;;;15.16;44.42;99914.19;1778017;80;21064;-75
2021/04/21 01:41:02;;;;;;;16.95;11.43;;;;;;;15.11;44.56;99912.61;1777930;80;21069;-74
2021/04/21 01:43:49;;;;;;;21.45;14.58;;;;;;;15.13;44.59;99913.27;1777957;80;21057;-76
2021/04/21 01:46:16;;;;;;;20.45;15.00;;;;;;;15.13;44.65;99913.27;1777863;80;21136;-76
2021/04/21 01:48:44;;;;;;;22.75;16.12;;;;;;;15.15;44.64;99915.75;1777838;80;21136;-75
2021/04/21 01:51:23;;;;;;;;;;;;;;;15.16;44.56;99912.84;1779594;80;21180;-76
2021/04/21 01:53:57;;;;;;;20.10;14.98;;;;;;;15.15;44.51;99915.23;1766188;80;20560;-76
2021/04/21 01:56:55;;;;;;;21.27;16.50;;;;;;;15.14;44.56;99912.75;1776616;80;21168;-76
2021/04/21 01:59:39;;;;;;;23.47;15.95;;;;;;;15.15;44.55;99907.14;1776486;80;21679;-76
2021/04/21 02:02:12;;;;;;;33.83;17.00;;;;;;;15.16;44.50;99916.06;1782165;79;21200;-76
2021/04/21 02:05:18;;;;;;;21.07;15.25;;;;;;;15.12;44.51;99914.80;1808910;79;21096;-77
2021/04/21 02:07:54;;;;;;;27.90;16.50;;;;;;;15.05;44.59;99924.22;1809861;79;21108;-77
2021/04/21 02:11:07;;;;;;;32.28;18.55;;;;;;;15.05;44.55;99928.27;1808749;79;21160;-76
2021/04/21 02:14:14;;;;;;;27.13;18.42;;;;;;;15.07;44.39;99928.88;1792329;79;21183;-74
2021/04/21 02:17:21;;;;;;;30.00;17.40;;;;;;;15.06;44.32;99924.53;1809415;79;21141;-76
2021/04/21 02:19:58;;;;;;;22.58;16.65;;;;;;;15.03;44.33;99926.27;1808810;79;21172;-75
2021/04/21 02:22:52;;;;;;;23.73;18.35;;;;;;;15.03;44.31;99927.62;1808662;79;21168;-75
2021/04/21 02:25:55;;;;;;;32.40;21.57;;;;;;;15.04;44.24;99925.26;1745392;82;21129;-76
2021/04/21 02:28:43;;;;;;;31.62;20.40;;;;;;;14.99;44.23;99933.13;1814170;79;21504;-76
2021/04/21 02:31:51;;;;;;;28.67;18.98;;;;;;;14.94;44.29;99938.25;1827157;77;21125;-76
2021/04/21 02:35:01;;;;;;;25.00;18.80;;;;;;;14.91;44.34;99942.72;1827111;78;21126;-76
2021/04/21 02:37:43;;;;;;;27.77;19.82;;;;;;;14.87;44.39;99938.23;1826061;78;21177;-76
2021/04/21 02:40:42;;;;;;;29.12;21.05;;;;;;;14.84;44.46;99937.27;1826551;78;21576;-76
2021/04/21 02:43:41;;;;;;;53.52;21.12;;;;;;;14.85;44.47;99944.84;1826462;78;21137;-75
2021/04/21 02:46:50;;;;;;;64.95;22.67;;;;;;;14.85;44.47;99947.05;1826390;78;21157;-75
2021/04/21 02:49:40;;;;;;;47.30;21.70;;;;;;;14.77;44.60;99947.72;1826582;78;21484;-75
2021/04/21 02:52:40;;;;;;;35.00;18.23;;;;;;;14.77;44.66;99954.45;1801249;78;21171;-75
2021/04/21 02:55:37;;;;;;;31.68;20.48;;;;;;;14.76;44.67;99954.12;1793663;80;21129;-75
2021/04/21 02:58:31;;;;;;;39.40;25.15;;;;;;;14.78;44.67;99959.64;1793124;80;21220;-74
2021/04/21 03:01:29;;;;;;;35.43;23.22;;;;;;;14.82;44.61;99958.73;1792918;80;21686;-75
2021/04/21 03:04:11;;;;;;;34.07;24.50;;;;;;;14.67;45.18;99954.30;1786466;80;21199;-75
2021/04/21 03:06:44;;;;;;;36.83;25.23;;;;;;;14.67;45.18;99954.30;1812831;79;21675;-76
2021/04/21 03:09:14;;;;;;;34.45;24.75;;;;;;;14.67;44.84;99963.73;1807922;79;21188;-76
2021/04/21 03:11:42;;;;;;;35.35;22.32;;;;;;;14.64;44.87;99958.72;1794269;79;21181;-76
2021/04/21 03:14:21;;;;;;;;;;;;;;;14.63;44.89;99969.20;1816562;78;21226;-75
2021/04/21 03:16:56;;;;;;;30.88;21.60;;;;;;;14.57;45.01;99969.95;1813033;78;20552;-73
2021/04/21 03:19:28;;;;;;;32.30;20.77;;;;;;;14.52;45.11;99979.15;1830683;77;21228;-74
2021/04/21 03:22:01;;;;;;;35.65;22.48;;;;;;;14.55;45.06;99977.42;1830410;77;21188;-75
2021/04/21 03:24:32;;;;;;;41.75;25.80;;;;;;;14.56;45.06;99975.03;1817539;77;21171;-76
2021/04/21 03:27:03;;;;;;;41.60;27.65;;;;;;;14.67;44.78;99979.05;1816747;78;21180;-79
2021/04/21 03:29:42;;;;;;;46.63;29.32;;;;;;;14.64;44.70;99987.55;1816631;79;21104;-76
2021/04/21 03:32:22;;;;;;;43.10;27.30;;;;;;;14.58;44.74;99982.43;1816555;79;21521;-76
2021/04/21 03:34:50;;;;;;;30.90;22.40;;;;;;;14.58;44.72;99986.47;1817503;79;21084;-76
2021/04/21 03:37:56;;;;;;;31.85;21.93;;;;;;;14.59;44.73;99987.30;1788113;79;21125;-77
2021/04/21 03:40:23;;;;;;;28.98;21.30;;;;;;;14.62;44.64;99990.94;1825573;78;21187;-77
2021/04/21 03:42:50;;;;;;;;;;;;;;;14.58;44.68;99998.60;1816271;79;21472;-76
2021/04/21 03:45:17;;;;;;;32.50;21.25;;;;;;;14.50;44.80;100004.13;1796614;77;20152;-77
2021/04/21 03:47:44;;;;;;;;;;;;;;;14.52;44.75;100007.45;1799943;79;21546;-76
2021/04/21 03:50:13;;;;;;;33.33;21.35;;;;;;;14.55;44.75;100007.06;1784350;80;20235;-76
2021/04/21 03:52:43;;;;;;;44.42;28.77;;;;;;;14.55;44.86;100011.62;1795923;77;21156;-77
2021/04/21 03:55:11;;;;;;;44.38;29.52;;;;;;;14.57;44.91;100010.38;1797283;79;21172;-76
2021/04/21 03:57:47;;;;;;;38.20;28.10;;;;;;;14.62;44.82;100017.89;1797796;78;21172;-74
2021/04/21 04:00:18;;;;;;;41.35;26.05;;;;;;;14.66;44.69;100013.77;1790498;78;21190;-76
2021/04/21 04:03:01;;;;;;;35.50;25.27;;;;;;;14.71;44.64;100012.15;1815680;79;21151;-73
2021/04/21 04:05:33;;;;;;;31.87;24.18;;;;;;;14.76;44.60;100012.08;1788501;77;21112;-77
2021/04/21 04:08:08;;;;;;;32.30;23.02;;;;;;;14.79;44.53;100022.48;1756334;79;21684;-76
2021/04/21 04:10:35;;;;;;;35.68;23.30;;;;;;;14.83;44.38;100029.98;1796205;77;21220;-73
2021/04/21 04:13:07;;;;;;;28.55;21.75;;;;;;;14.82;44.39;100032.88;1754561;80;21167;-74
2021/04/21 04:15:35;;;;;;;32.03;21.27;;;;;;;14.85;44.45;100033.82;1788695;77;21144;-75
2021/04/21 04:18:02;;;;;;;31.73;21.05;;;;;;;14.90;44.43;100051.10;1792569;77;21234;-76
2021/04/21 04:20:29;;;;;;;31.35;22.85;;;;;;;14.96;44.30;100048.13;1795189;78;21642;-76
2021/04/21 04:22:57;;;;;;;;;;;;;;;15.00;44.25;100054.80;1804955;77;21183;-76
2021/04/21 04:25:24;;;;;;;36.38;24.00;;;;;;;15.08;44.15;100050.61;1788169;79;20282;-78
2021/04/21 04:27:51;;;;;;;44.35;25.00;;;;;;;15.11;44.12;100048.84;1790747;79;21743;-76
2021/04/21 04:30:22;;;;;;;35.63;25.17;;;;;;;15.14;44.12;100045.76;1759986;79;21176;-76
2021/04/21 04:32:50;;;;;;;33.08;22.80;;;;;;;15.22;44.11;100051.52;1785347;79;21226;-76
2021/04/21 04:35:18;;;;;;;31.42;22.67;;;;;;;15.34;43.95;100055.83;1756124;80;21584;-74
2021/04/21 04:37:47;;;;;;;34.88;22.67;;;;;;;15.40;43.86;100052.35;1787989;79;21208;-74
2021/04/21 04:40:18;;;;;;;33.25;21.93;;;;;;;15.46;43.73;100059.64;1795730;79;21643;-76
2021/04/21 04:42:46;;;;;;;39.30;21.85;;;;;;;15.51;43.68;100065.27;1755380;80;21210;-75
2021/04/21 04:45:16;;;;;;;26.68;19.92;;;;;;;15.53;43.68;100071.29;1730314;80;21220;-75
2021/04/21 04:47:49;;;;;;;24.70;17.67;;;;;;;15.58;43.62;100074.25;1787367;79;21112;-75
2021/04/21 04:50:21;;;;;;;35.23;18.80;;;;;;;15.62;43.52;100072.79;1809753;79;21128;-77
2021/04/21 04:52:55;;;;;;;30.25;19.42;;;;;;;15.68;43.47;100076.09;1796081;79;21187;-75
2021/04/21 04:55:24;;;;;;;27.77;18.77;;;;;;;15.75;43.45;100078.80;1796535;79;21152;-78
2021/04/21 04:57:54;;;;;;;25.15;17.65;;;;;;;15.85;43.32;100086.52;1798957;78;21176;-75
2021/04/21 05:00:27;;;;;;;23.60;16.95;;;;;;;15.87;43.42;100085.30;1794207;79;21140;-77
2021/04/21 05:03:21;;;;;;;24.55;16.50;;;;;;;15.94;43.36;100090.72;1798551;79;21192;-77
2021/04/21 05:05:50;;;;;;;23.47;16.65;;;;;;;16.00;43.26;100089.10;1791773;77;21208;-76
2021/04/21 05:08:17;;;;;;;25.27;17.55;;;;;;;16.05;43.21;100094.20;1760633;80;21477;-74
2021/04/21 05:10:55;;;;;;;32.17;18.07;;;;;;;16.11;43.10;100092.03;1801113;77;21239;-75
2021/04/21 05:13:24;;;;;;;27.75;16.77;;;;;;;16.15;43.10;100087.89;1808963;77;21168;-77
2021/04/21 05:15:57;;;;;;;25.70;15.98;;;;;;;16.18;43.09;100092.89;1788521;79;21215;-79
2021/04/21 05:18:55;;;;;;;30.60;16.67;;;;;;;16.19;43.05;100095.08;1801983;78;21240;-76
2021/04/21 05:21:59;;;;;;;27.75;18.17;;;;;;;16.25;43.15;100101.00;1792351;78;21158;-78
2021/04/21 05:25:16;;;;;;;22.95;16.32;;;;;;;16.31;43.16;100102.91;1766457;80;21621;-77
2021/04/21 05:28:25;;;;;;;23.65;15.53;;;;;;;16.36;43.11;100103.12;1782131;78;21771;-77
2021/04/21 05:31:32;;;;;;;25.57;15.72;;;;;;;16.43;43.21;100105.31;1794443;79;21635;-76
2021/04/21 05:34:54;;;;;;;23.45;14.93;;;;;;;16.47;43.23;100103.86;1795713;77;21048;-76
2021/04/21 05:38:04;;;;;;;25.05;14.85;;;;;;;16.55;43.11;100108.78;1784457;79;21185;-76
2021/04/21 05:41:11;;;;;;;25.20;12.95;;;;;;;16.60;43.04;100107.64;1800576;79;21681;-74
2021/04/21 05:44:19;;;;;;;16.90;10.65;;;;;;;16.61;42.88;100111.48;1794564;77;21750;-77
2021/04/21 05:47:22;;;;;;;17.17;13.18;;;;;;;16.63;42.84;100114.00;1797351;77;21200;-75
2021/04/21 05:50:34;;;;;;;28.30;21.33;;;;;;;16.67;43.05;100116.08;1796851;77;21220;-75
2021/04/21 05:53:57;;;;;;;21.73;14.05;;;;;;;16.76;43.05;100121.30;1798722;79;21176;-76
2021/04/21 05:57:06;;;;;;;14.73;10.27;;;;;;;16.85;42.67;100118.70;1791956;77;21749;-76
2021/04/21 06:00:26;;;;;;;15.00;10.25;;;;;;;16.93;42.20;100121.21;1793761;79;21213;-75
2021/04/21 06:02:53;;;;;;;11.35;9.08;;;;;;;16.95;42.04;100126.73;1792459;77;21417;-77
2021/04/21 06:05:21;;;;;;;12.40;9.03;;;;;;;16.97;41.75;100128.70;1796078;77;21195;-75
2021/04/21 06:07:47;;;;;;;;;;;;;;;16.99;41.79;100132.58;1788889;77;21176;-75
2021/04/21 06:10:23;;;;;;;13.38;9.80;;;;;;;17.00;41.82;100130.17;1772817;77;20512;-75
2021/04/21 06:12:58;;;;;;;11.78;9.68;;;;;;;16.98;42.09;100134.42;1799005;77;21135;-74
2021/04/21 06:15:51;;;;;;;11.88;8.83;;;;;;;16.97;42.25;100142.23;1794954;77;21145;-75
2021/04/21 06:18:28;;;;;;;13.43;8.63;;;;;;;16.96;42.15;100147.34;1778227;79;21113;-75
2021/04/21 06:20:55;;;;;;;11.15;8.63;;;;;;;16.95;42.18;100150.26;1792193;79;21120;-75
2021/04/21 06:23:31;;;;;;;;;;;;;;;16.91;42.33;100151.71;1804388;79;21216;-76
2021/04/21 06:26:02;;;;;;;11.97;9.33;;;;;;;16.90;42.57;100163.58;1808915;77;20547;-78
2021/04/21 06:28:30;;;;;;;10.78;9.18;;;;;;;16.85;43.12;100168.75;1793921;78;21164;-77
2021/04/21 06:31:12;;;;;;;13.65;10.10;;;;;;;16.84;43.64;100173.85;1801298;77;21351;-77
2021/04/21 06:33:42;;;;;;;14.70;10.70;;;;;;;16.80;44.15;100177.48;1809381;77;21410;-77
2021/04/21 06:36:13;;;;;;;13.13;9.75;;;;;;;16.82;44.58;100180.00;1808173;79;21093;-77
2021/04/21 06:38:43;;;;;;;13.20;8.83;;;;;;;16.75;44.89;100179.97;1809830;77;21159;-79
2021/04/21 06:41:13;;;;;;;15.63;9.83;;;;;;;16.65;45.40;100187.09;1809459;77;21236;-76
2021/04/21 06:43:42;;;;;;;15.85;10.05;;;;;;;16.61;45.92;100189.06;1772533;79;21165;-80
2021/04/21 06:46:12;;;;;;;12.90;10.28;;;;;;;16.58;46.42;100187.62;1803517;77;21184;-77
2021/04/21 06:48:40;;;;;;;14.68;10.25;;;;;;;16.56;46.51;100195.09;1806383;77;21204;-77
2021/04/21 06:51:14;;;;;;;15.58;10.70;;;;;;;16.56;46.65;100200.49;1821582;77;21169;-77
2021/04/21 06:53:43;;;;;;;18.57;12.30;;;;;;;16.55;46.74;100198.00;1817997;77;21121;-78
2021/04/21 06:56:11;;;;;;;15.53;11.40;;;;;;;16.51;47.12;100196.22;1808543;77;21140;-78
2021/04/21 06:58:39;;;;;;;15.00;11.35;;;;;;;16.53;47.09;100191.95;1805099;77;21848;-76
2021/04/21 07:01:15;;;;;;;13.28;10.80;;;;;;;16.52;47.19;100196.52;1809745;77;21736;-77
2021/04/21 07:03:43;;;;;;;13.80;10.70;;;;;;;16.53;47.39;100204.12;1802270;77;21161;-76
2021/04/21 07:06:13;;;;;;;14.50;10.70;;;;;;;16.54;47.56;100205.28;1812322;77;21113;-77
2021/04/21 07:08:40;;;;;;;13.00;10.72;;;;;;;16.55;47.64;100209.65;1807419;77;21117;-76
2021/04/21 07:11:09;;;;;;;13.38;10.58;;;;;;;16.55;47.83;100206.12;1785751;78;21683;-75
2021/04/21 07:13:45;;;;;;;14.68;12.28;;;;;;;16.60;47.58;100207.16;1788500;78;21105;-79
2021/04/21 07:16:26;;;;;;;13.32;11.00;;;;;;;16.66;47.60;100207.69;1814625;77;21167;-77
2021/04/21 07:19:12;;;;;;;12.25;10.13;;;;;;;16.78;47.82;100205.79;1826194;77;21774;-78
2021/04/21 07:21:40;;;;;;;15.38;10.40;;;;;;;16.99;48.01;100215.09;1809405;77;21161;-75
2021/04/21 07:24:11;;;;;;;13.72;9.53;;;;;;;17.21;47.98;100210.30;1814875;77;21169;-75
2021/04/21 07:26:45;;;;;;;12.10;9.38;;;;;;;17.37;47.57;100214.48;1796080;79;21602;-77
2021/04/21 07:29:23;;;;;;;11.85;9.08;;;;;;;17.47;46.59;100221.66;1781745;79;21107;-75
2021/04/21 07:31:51;;;;;;;13.50;10.50;;;;;;;17.54;45.98;100221.68;1798887;79;21092;-75
2021/04/21 07:34:35;;;;;;;13.50;8.35;;;;;;;17.57;46.02;100222.07;1795622;77;21211;-77
2021/04/21 07:37:02;;;;;;;11.08;7.95;;;;;;;17.63;45.67;100229.38;1792913;77;21218;-76
2021/04/21 07:39:33;;;;;;;8.53;7.35;;;;;;;17.70;45.31;100228.83;1799411;79;21226;-77
2021/04/21 07:42:01;;;;;;;5.95;5.35;;;;;;;17.78;45.49;100232.41;1795709;77;21184;-77
2021/04/21 07:44:37;;;;;;;6.00;5.40;;;;;;;17.93;44.39;100231.11;1789760;77;21215;-76
2021/04/21 07:47:12;;;;;;;9.88;6.22;;;;;;;18.02;43.88;100238.50;1799537;77;21562;-76
2021/04/21 07:49:48;;;;;;;7.85;5.67;;;;;;;18.06;43.51;100237.03;1803273;77;21219;-76
2021/04/21 07:52:31;;;;;;;7.58;5.40;;;;;;;18.11;42.80;100235.87;1788789;77;21198;-79
2021/04/21 07:55:18;;;;;;;6.92;6.17;;;;;;;18.13;42.49;100240.57;1810173;77;21732;-75
2021/04/21 07:58:01;;;;;;;7.53;6.40;;;;;;;18.11;42.57;100236.39;1801929;77;21120;-75
2021/04/21 08:00:32;;;;;;;8.50;7.12;;;;;;;18.07;42.83;100239.22;1794103;77;21204;-76
2021/04/21 08:03:00;;;;;;;8.13;6.75;;;;;;;18.07;42.89;100237.33;1797330;77;21128;-76
2021/04/21 08:05:28;;;;;;;9.93;6.62;;;;;;;18.08;43.03;100243.62;1798941;77;22014;-75
2021/04/21 08:07:59;;;;;;;9.25;6.10;;;;;;;18.10;43.22;100240.98;1812531;78;21100;-75
2021/04/21 08:10:34;;;;;;;10.32;6.87;;;;;;;18.10;43.22;100239.63;1796841;78;21143;-77
2021/04/21 08:13:02;;;;;;;7.87;6.50;;;;;;;18.14;43.23;100236.81;1799756;77;21123;-78
2021/04/21 08:15:39;;;;;;;9.93;6.70;;;;;;;18.24;43.27;100236.36;1804009;77;21521;-73
2021/04/21 08:18:13;;;;;;;7.80;6.35;;;;;;;18.40;43.53;100234.53;1810220;77;21117;-74
2021/04/21 08:20:46;;;;;;;6.87;6.15;;;;;;;18.65;43.63;100244.11;1801013;77;21201;-76
2021/04/21 08:23:22;;;;;;;7.87;6.55;;;;;;;18.92;43.54;100242.64;1797261;77;21218;-74
2021/04/21 08:25:53;;;;;;;9.48;6.78;;;;;;;19.20;43.05;100235.45;1802622;77;21228;-76
2021/04/21 08:28:25;;;;;;;7.72;6.65;;;;;;;19.43;42.42;100234.86;1809612;77;21170;-76
2021/04/21 08:30:56;;;;;;;7.47;6.40;;;;;;;19.59;41.78;100238.39;1795808;77;21263;-76
2021/04/21 08:33:24;;;;;;;7.37;6.67;;;;;;;19.61;41.07;100226.79;1804252;77;21239;-75
2021/04/21 08:35:51;;;;;;;8.48;6.03;;;;;;;19.56;40.91;100238.83;1797199;77;21207;-75
2021/04/21 08:38:19;;;;;;;7.33;6.05;;;;;;;19.45;40.67;100230.89;1801715;77;21195;-76
2021/04/21 08:40:48;;;;;;;7.67;6.75;;;;;;;19.34;40.64;100228.05;1774463;78;21642;-76
2021/04/21 08:43:17;;;;;;;8.30;5.97;;;;;;;19.21;40.72;100237.11;1806353;77;21280;-75
2021/04/21 08:45:45;;;;;;;9.30;6.78;;;;;;;19.12;41.10;100236.58;1774426;79;21202;-76
2021/04/21 08:48:13;;;;;;;10.58;8.60;;;;;;;19.03;41.13;100235.18;1790721;78;21211;-79
2021/04/21 08:50:40;;;;;;;7.45;6.75;;;;;;;18.93;41.28;100243.77;1794902;77;21045;-77
2021/04/21 08:53:08;;;;;;;;;;;;;;;18.86;41.56;100243.00;1809402;77;21193;-75
2021/04/21 08:55:39;;;;;;;9.65;6.80;;;;;;;18.81;42.08;100244.19;1805600;77;20338;-75
2021/04/21 08:58:09;;;;;;;7.03;5.47;;;;;;;18.72;42.42;100250.38;1797503;79;21252;-76
2021/04/21 09:00:39;;;;;;;10.05;6.33;;;;;;;18.65;42.25;100251.42;1796813;77;21148;-76
2021/04/21 09:03:07;;;;;;;7.83;6.53;;;;;;;18.55;42.48;100250.53;1796166;77;21235;-77
2021/04/21 09:05:35;;;;;;;8.13;6.42;;;;;;;18.47;42.90;100250.77;1795821;78;21204;-76
2021/04/21 09:08:02;;;;;;;;;;;;;;;18.41;42.77;100242.97;1821186;77;21220;-75
2021/04/21 09:10:32;;;;;;;8.13;6.78;;;;;;;18.41;43.08;100256.53;1774540;77;20291;-78
2021/04/21 09:13:00;;;;;;;8.18;6.83;;;;;;;18.47;43.86;100245.34;1796038;77;22304;-77
2021/04/21 09:15:31;;;;;;;8.80;6.75;;;;;;;18.59;43.74;100236.84;1797641;77;21336;-77
2021/04/21 09:18:11;;;;;;;8.28;6.25;;;;;;;18.69;43.66;100252.16;1770398;79;22130;-78
2021/04/21 09:20:47;;;;;;;6.78;6.12;;;;;;;18.79;43.01;100249.50;1795452;78;21112;-76
2021/04/21 09:23:19;;;;;;;6.78;6.12;;;;;;;18.89;42.70;100253.40;1797555;77;21049;-77
2021/04/21 09:25:52;;;;;;;10.05;8.03;;;;;;;18.93;42.45;100251.09;1793013;78;22292;-78
2021/04/21 09:28:22;;;;;;;6.28;5.65;;;;;;;18.96;42.06;100262.88;1795735;77;21151;-77
2021/04/21 09:30:54;;;;;;;6.70;5.72;;;;;;;18.92;41.54;100264.36;1803515;79;21124;-76
2021/04/21 09:33:21;;;;;;;6.45;5.75;;;;;;;18.80;41.25;100272.88;1793558;77;21093;-76
2021/04/21 09:35:49;;;;;;;6.28;5.67;;;;;;;18.66;41.40;100266.11;1794194;77;21102;-75
2021/04/21 09:38:27;;;;;;;6.35;5.75;;;;;;;18.57;41.54;100274.19;1800785;78;21317;-77
2021/04/21 09:41:03;;;;;;;7.58;6.37;;;;;;;18.49;41.94;100270.39;1795440;78;21236;-77
2021/04/21 09:43:34;;;;;;;7.33;5.95;;;;;;;18.42;41.83;100269.03;1791025;78;21186;-77
2021/04/21 09:46:17;;;;;;;6.90;6.05;;;;;;;18.36;41.80;100275.86;1769453;79;22453;-78
2021/04/21 09:48:45;;;;;;;6.80;6.03;;;;;;;18.27;42.07;100292.05;1798093;77;21203;-76
2021/04/21 09:51:22;;;;;;;6.90;6.20;;;;;;;18.18;42.72;100277.36;1807813;77;21555;-76
2021/04/21 09:53:52;;;;;;;8.05;7.03;;;;;;;18.12;42.91;100278.22;1785070;78;21209;-76
2021/04/21 09:56:22;;;;;;;6.92;6.08;;;;;;;18.06;43.47;100276.33;1783337;78;21108;-76
2021/04/21 09:58:57;;;;;;;7.80;7.00;;;;;;;17.95;43.36;100267.50;1782576;79;21090;-76
2021/04/21 10:01:38;;;;;;;10.28;6.72;;;;;;;17.87;43.76;100263.66;1782377;78;21108;-76
2021/04/21 10:04:25;;;;;;;7.45;6.72;;;;;;;17.88;44.42;100268.86;1802619;77;21072;-77
2021/04/21 10:07:02;;;;;;;9.28;7.78;;;;;;;17.91;44.47;100268.97;1792294;78;21133;-77
2021/04/21 10:09:35;;;;;;;9.68;7.50;;;;;;;17.95;44.80;100269.69;1767722;77;21184;-75
2021/04/21 10:12:16;;;;;;;7.85;6.85;;;;;;;17.99;44.64;100269.58;1795827;77;21595;-76
2021/04/21 10:14:50;;;;;;;11.33;7.62;;;;;;;18.05;44.47;100273.84;1793702;77;21231;-75
2021/04/21 10:17:18;;;;;;;9.23;6.90;;;;;;;18.08;44.10;100282.39;1791146;77;21200;-75
2021/04/21 10:19:45;;;;;;;8.03;6.55;;;;;;;18.15;44.04;100272.88;1794471;79;21127;-76
2021/04/21 10:22:12;;;;;;;7.05;6.17;;;;;;;18.24;44.16;100278.38;1794031;77;21730;-76
2021/04/21 10:24:40;;;;;;;5.87;5.25;;;;;;;18.34;44.21;100277.93;1788469;79;21631;-76
2021/04/21 10:27:08;;;;;;;;;;;;;;;18.45;43.50;100270.50;1798205;77;21733;-78
2021/04/21 10:29:39;;;;;;;6.10;5.17;;;;;;;18.54;42.79;100271.92;1793015;79;20267;-77
2021/04/21 10:32:15;;;;;;;7.75;6.50;;;;;;;18.62;42.76;100275.77;1791937;79;21203;-78
2021/04/21 10:34:44;;;;;;;4.17;3.77;;;;;;;18.70;42.81;100269.27;1795494;77;21197;-77
2021/04/21 10:37:12;;;;;;;5.12;4.25;;;;;;;18.80;41.98;100270.98;1795310;77;21192;-77
2021/04/21 10:39:41;;;;;;;6.30;4.42;;;;;;;18.88;41.65;100274.81;1756137;80;21135;-77
2021/04/21 10:42:15;;;;;;;4.97;4.05;;;;;;;18.98;41.14;100277.87;1797117;79;21454;-77
2021/04/21 10:44:45;;;;;;;4.40;4.00;;;;;;;19.06;41.07;100268.66;1810715;79;21510;-78
2021/04/21 10:47:16;;;;;;;5.28;3.92;;;;;;;19.14;40.46;100262.14;1797758;77;21135;-76
2021/04/21 10:49:57;;;;;;;3.70;3.40;;;;;;;19.20;38.48;100266.69;1801717;79;21183;-76
2021/04/21 10:52:33;;;;;;;3.50;3.20;;;;;;;19.22;37.48;100262.71;1795185;79;21667;-76
2021/04/21 10:55:14;;;;;;;3.83;3.27;;;;;;;19.20;37.06;100270.23;1776107;79;21218;-76
2021/04/21 10:57:46;;;;;;;8.93;3.80;;;;;;;19.22;37.43;100276.29;1799004;79;21220;-77
2021/04/21 11:00:25;;;;;;;4.67;3.60;;;;;;;19.20;38.03;100278.38;1793210;77;21184;-77
2021/04/21 11:03:09;;;;;;;5.67;3.67;;;;;;;19.19;38.23;100280.79;1796120;79;21216;-77
2021/04/21 11:05:41;;;;;;;3.95;3.42;;;;;;;19.20;37.96;100285.16;1806490;79;21215;-79
2021/04/21 11:08:15;;;;;;;3.22;2.92;;;;;;;19.19;38.10;100285.39;1798650;77;21144;-77
2021/04/21 11:11:02;;;;;;;5.90;3.60;;;;;;;19.16;37.92;100281.22;1793337;78;21192;-77
2021/04/21 11:13:38;;;;;;;5.20;3.30;;;;;;;19.18;37.90;100289.16;1795985;79;21106;-78
2021/04/21 11:16:22;;;;;;;4.70;3.70;;;;;;;19.17;38.29;100301.91;1807040;79;21203;-76
2021/04/21 11:18:49;;;;;;;4.10;3.45;;;;;;;19.19;37.88;100294.89;1799971;78;21840;-77
2021/04/21 11:21:21;;;;;;;4.00;3.60;;;;;;;19.22;37.94;100304.80;1799189;77;21200;-77
2021/04/21 11:23:59;;;;;;;6.10;3.72;;;;;;;19.29;37.99;100290.34;1807029;79;21167;-76
2021/04/21 11:26:30;;;;;;;4.62;3.75;;;;;;;19.33;37.39;100288.32;1801860;78;21077;-76
2021/04/21 11:29:24;;;;;;;5.20;3.10;;;;;;;19.37;37.46;100284.11;1803773;79;21078;-76
2021/04/21 11:31:58;;;;;;;5.62;4.08;;;;;;;19.41;37.01;100291.31;1793902;78;21209;-77
2021/04/21 11:34:34;;;;;;;3.35;2.90;;;;;;;19.45;37.30;100296.61;1799236;78;21067;-77
2021/04/21 11:37:15;;;;;;;6.95;3.30;;;;;;;19.49;36.63;100294.59;1799353;78;21173;-78
2021/04/21 11:39:48;;;;;;;4.65;3.30;;;;;;;19.52;36.14;100303.63;1802154;78;21071;-77
2021/04/21 11:42:42;;;;;;;4.78;3.58;;;;;;;19.53;35.60;100303.14;1769809;79;21191;-77
2021/04/21 11:45:27;;;;;;;5.17;3.83;;;;;;;19.49;35.45;100308.17;1796042;77;21204;-76
2021/04/21 11:48:14;;;;;;;7.00;3.87;;;;;;;19.48;35.59;100334.17;1768070;79;21184;-77
2021/04/21 11:50:44;;;;;;;6.53;3.40;;;;;;;19.43;36.42;100335.36;1811979;77;21161;-77
2021/04/21 11:53:17;;;;;;;8.15;3.75;;;;;;;19.32;37.54;100352.37;1791556;77;21291;-76
2021/04/21 11:55:57;;;;;;;4.25;3.85;;;;;;;19.18;38.41;100367.38;1789440;78;21428;-78
2021/04/21 11:58:38;;;;;;;4.28;3.83;;;;;;;19.00;38.97;100368.09;1813270;79;21652;-77
2021/04/21 12:01:11;;;;;;;7.53;3.55;;;;;;;18.80;39.54;100367.84;1779569;79;21191;-77
2021/04/21 12:03:43;;;;;;;3.80;3.33;;;;;;;18.65;39.92;100359.41;1791297;79;21194;-76
2021/04/21 12:06:19;;;;;;;3.58;3.27;;;;;;;18.54;40.21;100349.77;1801884;79;21452;-78